KJSL/JSL METAR and TAF weather

Enter ICAO airport designator
Station Type Date Time Source
KJSL METAR 2019/08/20 09:20 UTC NOAA

KJSL 200920Z AUTO 15009G16KT FEW026 29/23 A2998 RMK A01


Station Type Date Time Source
KJSL Decoded METAR 2019/08/20 09:20 UTC NOAA

Station name not available
Aug 20, 2019 - 05:20 AM EDT / 2019.08.20 0920 UTC
Wind: from the SSE (150 degrees) at 10 MPH (9 KT) gusting to 18 MPH (16 KT):0
Sky conditions: mostly clear
Temperature: 84 F (29 C)
Dew Point: 73 F (23 C)
Relative Humidity: 70%
Pressure (altimeter): 29.98 in. Hg (1015 hPa)
ob: KJSL 200920Z AUTO 15009G16KT FEW026 29/23 A2998 RMK A01
cycle: 9

Station Type Date Time Source
KJSL TAF UTC NOAA

Error!

Example: see airport list